British Envoy — MNAN4 — position and weather

sailwx.info

Track history (hours):
 
Tides and Currents Weather Stations Pressure Air Temp Water Temp Dewpoint Dewpoint Depression Visibility Wind Speed Wind Dir Waves Ship Positions

British Envoy

Last reported at 2015-Jul-02 18:33 UTC. Time now 2015-Jul-03 17:17 UTC.
Position S 29°53' E 031°02'.

Length 184.2 m; beam 27.4 m; draft 11.3 m.

Type: Tanker. MMSI: 235011280.

Date/timePositionNaut miles runAvg speedWind from/ knotsBaromVisibWave heightAir tempDewpointWater temp
2015-Jul-02 18:33S 29°53' E 031°02'6 6.4
2015-Jul-02 17:33S 29°48' E 031°07'3 3.4
2015-Jul-02 16:33S 29°48' E 031°11'1 1.2
2015-Jul-02 15:33S 29°48' E 031°09'2 1.8
2015-Jul-02 14:34S 29°48' E 031°11'1 1.0
2015-Jul-02 13:33S 29°48' E 031°10'3 2.8
2015-Jul-02 12:33S 29°48' E 031°07'5 4.6
2015-Jul-02 11:32S 29°46' E 031°12'0 0.0
2015-Jul-02 10:32S 29°46' E 031°12'0 0.0
2015-Jul-02 09:32S 29°46' E 031°12'0 0.1
2015-Jul-02 08:32S 29°46' E 031°12'0 0.0
2015-Jul-02 07:32S 29°46' E 031°12'0 0.0
2015-Jul-02 06:32S 29°46' E 031°12'0 0.0
2015-Jul-02 05:32S 29°46' E 031°12'0 0.0
2015-Jul-02 04:32S 29°46' E 031°12'0 0.0
2015-Jul-02 03:32S 29°46' E 031°12'0 0.0
2015-Jul-02 02:32S 29°46' E 031°12'0 0.0
2015-Jul-02 01:32S 29°46' E 031°12'4 6.9
2015-Jul-02 01:00S 29°42' E 031°12'4 8.5 240 / 61026.2 5.4 19.513.418.0
2015-Jul-02 00:32S 29°46' E 031°12'0 0.0
2015-Jul-01 23:32S 29°46' E 031°12'0 0.0
2015-Jul-01 22:32S 29°46' E 031°12'0 0.0
2015-Jul-01 21:32S 29°46' E 031°12'0 0.0
2015-Jul-01 20:29S 29°46' E 031°12'0 0.0
2015-Jul-01 19:32S 29°46' E 031°12'0 0.0
2015-Jul-01 18:32S 29°46' E 031°12'0 0.0
2015-Jul-01 17:32S 29°46' E 031°12'0 0.1
2015-Jul-01 16:32S 29°46' E 031°12'0 0.2
2015-Jul-01 15:33S 29°46' E 031°12'1010.0
2015-Jul-01 14:33S 29°53' E 031°03'1 1.1
2015-Jul-01 13:32S 29°53' E 031°02'  
2015-Jun-27 13:33S 29°53' E 031°02'0 0.3
2015-Jun-27 12:34S 29°53' E 031°02'5 5.5
2015-Jun-27 11:34S 29°51' E 031°08'1 0.9
2015-Jun-27 10:34S 29°52' E 031°09'1313.3
2015-Jun-27 09:33S 30°05' E 031°08'1413.9
2015-Jun-27 08:33S 30°18' E 031°02'1212.1
2015-Jun-27 07:33S 30°28' E 030°54'12510.2
2015-Jun-26 19:16S 32°08' E 029°25'8 9.4
2015-Jun-26 18:28S 32°13' E 029°19'11 9.6
2015-Jun-26 17:21S 32°20' E 029°10'1010.1
2015-Jun-26 16:23S 32°27' E 029°02'60 1.4
2015-Jun-24 21:28S 33°05' E 028°06'3 1.3
2015-Jun-24 19:28S 33°05' E 028°02'1 0.4
2015-Jun-24 18:21S 33°05' E 028°02'0 0.2
2015-Jun-24 16:24S 33°05' E 028°02'5 4.2
2015-Jun-24 15:10S 33°01' E 027°58'  
Track history (hours):
 
Tides and Currents Weather Stations Pressure Air Temp Water Temp Dewpoint Dewpoint Depression Visibility Wind Speed Wind Dir Waves Ship Positions

British Envoy

Last reported at 2015-Jul-02 18:33 UTC. Time now 2015-Jul-03 17:17 UTC.
Position S 29°53' E 031°02'.

Length 184.2 m; beam 27.4 m; draft 11.3 m.

Type: Tanker. MMSI: 235011280.

Date/timePositionNaut miles runAvg speedWind from/ knotsBaromVisibWave heightAir tempDewpointWater temp
2015-Jul-02 18:33S 29°53' E 031°02'6 6.4
2015-Jul-02 17:33S 29°48' E 031°07'3 3.4
2015-Jul-02 16:33S 29°48' E 031°11'1 1.2
2015-Jul-02 15:33S 29°48' E 031°09'2 1.8
2015-Jul-02 14:34S 29°48' E 031°11'1 1.0
2015-Jul-02 13:33S 29°48' E 031°10'3 2.8
2015-Jul-02 12:33S 29°48' E 031°07'5 4.6
2015-Jul-02 11:32S 29°46' E 031°12'0 0.0
2015-Jul-02 10:32S 29°46' E 031°12'0 0.0
2015-Jul-02 09:32S 29°46' E 031°12'0 0.1
2015-Jul-02 08:32S 29°46' E 031°12'0 0.0
2015-Jul-02 07:32S 29°46' E 031°12'0 0.0
2015-Jul-02 06:32S 29°46' E 031°12'0 0.0
2015-Jul-02 05:32S 29°46' E 031°12'0 0.0
2015-Jul-02 04:32S 29°46' E 031°12'0 0.0
2015-Jul-02 03:32S 29°46' E 031°12'0 0.0
2015-Jul-02 02:32S 29°46' E 031°12'0 0.0
2015-Jul-02 01:32S 29°46' E 031°12'4 6.9
2015-Jul-02 01:00S 29°42' E 031°12'4 8.5 240 / 61026.2 5.4 19.513.418.0
2015-Jul-02 00:32S 29°46' E 031°12'0 0.0
2015-Jul-01 23:32S 29°46' E 031°12'0 0.0
2015-Jul-01 22:32S 29°46' E 031°12'0 0.0
2015-Jul-01 21:32S 29°46' E 031°12'0 0.0
2015-Jul-01 20:29S 29°46' E 031°12'0 0.0
2015-Jul-01 19:32S 29°46' E 031°12'0 0.0
2015-Jul-01 18:32S 29°46' E 031°12'0 0.0
2015-Jul-01 17:32S 29°46' E 031°12'0 0.1
2015-Jul-01 16:32S 29°46' E 031°12'0 0.2
2015-Jul-01 15:33S 29°46' E 031°12'1010.0
2015-Jul-01 14:33S 29°53' E 031°03'1 1.1
2015-Jul-01 13:32S 29°53' E 031°02'  
2015-Jun-27 13:33S 29°53' E 031°02'0 0.3
2015-Jun-27 12:34S 29°53' E 031°02'5 5.5
2015-Jun-27 11:34S 29°51' E 031°08'1 0.9
2015-Jun-27 10:34S 29°52' E 031°09'1313.3
2015-Jun-27 09:33S 30°05' E 031°08'1413.9
2015-Jun-27 08:33S 30°18' E 031°02'1212.1
2015-Jun-27 07:33S 30°28' E 030°54'12510.2
2015-Jun-26 19:16S 32°08' E 029°25'8 9.4
2015-Jun-26 18:28S 32°13' E 029°19'11 9.6
2015-Jun-26 17:21S 32°20' E 029°10'1010.1
2015-Jun-26 16:23S 32°27' E 029°02'60 1.4
2015-Jun-24 21:28S 33°05' E 028°06'3 1.3
2015-Jun-24 19:28S 33°05' E 028°02'1 0.4
2015-Jun-24 18:21S 33°05' E 028°02'0 0.2
2015-Jun-24 16:24S 33°05' E 028°02'5 4.2
2015-Jun-24 15:10S 33°01' E 027°58'  

Dump ship's entire track history